Time;durP1;ratioP1;P1;durP2;ratioP2;P2;SDS_P1;SDS_P2;PMS_P1;PMS_P2;Temp;Humidity;BMP_temperature;BMP_pressure;BME280_temperature;BME280_humidity;BME280_pressure;Samples;Min_cycle;Max_cycle;Signal;HPM_P1;HPM_P2
2023/01/07 00:01:34;;;;;;;53.83;50.17;;;18.00;91.30;;;;;;5045244;28;20184;-70
2023/01/07 00:04:05;;;;;;;62.33;57.77;;;18.00;91.20;;;;;;5046518;28;20190;-72
2023/01/07 00:06:35;;;;;;;53.70;49.83;;;18.30;91.50;;;;;;5052348;28;20183;-72
2023/01/07 00:09:03;;;;;;;54.20;49.83;;;18.30;91.00;;;;;;5051211;28;20647;-71
2023/01/07 00:11:36;;;;;;;54.00;50.23;;;18.30;91.00;;;;;;5051125;28;20191;-71
2023/01/07 00:14:06;;;;;;;45.63;42.50;;;18.40;91.00;;;;;;5051918;28;20224;-70
2023/01/07 00:16:35;;;;;;;50.43;46.90;;;18.30;90.80;;;;;;5051101;28;20264;-71
2023/01/07 00:19:04;;;;;;;46.47;42.77;;;18.30;91.00;;;;;;5049861;28;20237;-71
2023/01/07 00:21:32;;;;;;;41.53;38.00;;;18.30;90.80;;;;;;5050486;28;20191;-70
2023/01/07 00:24:06;;;;;;;37.23;34.13;;;18.30;90.70;;;;;;5051433;28;20236;-70
2023/01/07 00:26:36;;;;;;;36.27;32.83;;;18.40;90.60;;;;;;5051733;28;20653;-71
2023/01/07 00:29:05;;;;;;;27.80;24.73;;;18.40;90.20;;;;;;5052498;28;20674;-71
2023/01/07 00:31:36;;;;;;;25.00;22.33;;;18.50;89.80;;;;;;5051565;28;20180;-72
2023/01/07 00:36:34;;;;;;;18.87;17.00;;;18.80;89.70;;;;;;5050736;28;20184;-72
2023/01/07 00:39:05;;;;;;;24.53;15.60;;;18.90;88.40;;;;;;5050834;28;20187;-71
2023/01/07 00:41:32;;;;;;;19.37;17.47;;;19.20;88.50;;;;;;5044283;28;20196;-70
2023/01/07 00:44:00;;;;;;;19.27;15.20;;;19.50;88.70;;;;;;5049942;28;20682;-72
2023/01/07 00:46:28;;;;;;;19.53;10.53;;;19.70;87.90;;;;;;5047100;28;20176;-71
2023/01/07 00:48:56;;;;;;;15.00;8.10;;;19.60;87.30;;;;;;5048620;28;20179;-71
2023/01/07 00:51:25;;;;;;;16.37;9.17;;;19.30;87.50;;;;;;5049519;28;20176;-74
2023/01/07 00:53:52;;;;;;;15.47;11.00;;;19.00;88.10;;;;;;5037834;28;20378;-70
2023/01/07 00:56:20;;;;;;;18.23;10.40;;;19.00;89.40;;;;;;5050331;28;20510;-70
2023/01/07 00:58:47;;;;;;;20.77;11.57;;;19.20;89.10;;;;;;5050406;28;20187;-69
2023/01/07 01:01:14;;;;;;;19.63;12.23;;;19.20;89.20;;;;;;5052009;28;20365;-72
2023/01/07 01:03:42;;;;;;;12.03;10.13;;;19.30;88.80;;;;;;5052343;28;20576;-70
2023/01/07 01:06:13;;;;;;;13.87;9.67;;;19.50;88.80;;;;;;5044507;28;20196;-69
2023/01/07 01:08:45;;;;;;;19.80;8.33;;;19.70;88.60;;;;;;5043613;28;20176;-70
2023/01/07 01:11:15;;;;;;;20.27;7.40;;;19.60;87.70;;;;;;5045718;28;20180;-72
2023/01/07 01:13:44;;;;;;;13.13;6.23;;;19.70;87.50;;;;;;5050877;28;20736;-70
2023/01/07 01:16:14;;;;;;;15.43;6.00;;;19.70;87.50;;;;;;5051486;28;20212;-71
2023/01/07 01:18:43;;;;;;;13.43;4.87;;;19.90;86.50;;;;;;5050899;28;20219;-71
2023/01/07 01:21:13;;;;;;;14.73;4.40;;;20.10;85.30;;;;;;5047855;28;20652;-70
2023/01/07 01:23:41;;;;;;;16.40;4.37;;;20.30;85.20;;;;;;5050604;28;20216;-72
2023/01/07 01:26:13;;;;;;;8.57;3.00;;;20.40;83.60;;;;;;5050958;28;20187;-70
2023/01/07 01:28:40;;;;;;;11.40;3.17;;;20.60;83.10;;;;;;5040614;28;20203;-72
2023/01/07 01:31:08;;;;;;;12.40;2.90;;;20.40;84.40;;;;;;5048238;28;20180;-74
2023/01/07 01:33:35;;;;;;;13.73;3.23;;;20.30;83.20;;;;;;5051800;28;20208;-72
2023/01/07 01:36:09;;;;;;;8.83;3.10;;;20.30;82.70;;;;;;5052000;28;20208;-71
2023/01/07 01:38:37;;;;;;;14.93;3.83;;;20.50;81.70;;;;;;5051852;28;20264;-74
2023/01/07 01:41:05;;;;;;;10.30;3.23;;;20.50;81.10;;;;;;5051912;28;20176;-71
2023/01/07 01:43:38;;;;;;;14.27;2.57;;;20.60;80.70;;;;;;5051269;28;20180;-71
2023/01/07 01:46:50;;;;;;;11.17;2.67;;;20.80;79.80;;;;;;5037485;28;20267;-70
2023/01/07 01:49:27;;;;;;;11.20;2.77;;;21.00;78.90;;;;;;5029538;28;20234;-73
2023/01/07 01:52:15;;;;;;;8.20;2.67;;;21.30;78.40;;;;;;5029629;28;20220;-70
2023/01/07 01:54:51;;;;;;;12.73;2.40;;;21.70;74.90;;;;;;5045188;28;20709;-71
2023/01/07 01:57:20;;;;;;;10.13;2.33;;;21.80;73.00;;;;;;5054794;28;20184;-72
2023/01/07 01:59:51;;;;;;;16.07;2.97;;;21.80;74.70;;;;;;5055235;28;20259;-73
2023/01/07 02:02:26;;;;;;;13.20;2.73;;;22.00;74.70;;;;;;5054617;28;20180;-73
2023/01/07 02:04:54;;;;;;;9.47;3.13;;;22.40;73.50;;;;;;5055602;28;20168;-71
2023/01/07 02:07:22;;;;;;;10.50;2.23;;;22.50;70.90;;;;;;5055170;28;20238;-72
2023/01/07 02:10:20;;;;;;;11.93;2.50;;;22.60;70.80;;;;;;5055297;28;20172;-71
2023/01/07 02:13:12;;;;;;;12.10;2.50;;;22.30;67.80;;;;;;5054897;28;20266;-72
2023/01/07 02:16:13;;;;;;;14.00;2.80;;;22.30;67.40;;;;;;5055018;28;20172;-71
2023/01/07 02:19:08;;;;;;;7.87;2.10;;;22.50;68.40;;;;;;5054985;28;20598;-75
2023/01/07 02:21:46;;;;;;;9.90;2.10;;;22.70;67.20;;;;;;5054175;28;20270;-73
2023/01/07 02:24:42;;;;;;;7.70;1.97;;;23.20;66.80;;;;;;5053832;28;20511;-74
2023/01/07 02:27:38;;;;;;;8.50;2.20;;;23.60;65.10;;;;;;5054607;28;20168;-73
2023/01/07 02:30:33;;;;;;;9.60;1.60;;;23.70;63.70;;;;;;5053391;28;20246;-74
2023/01/07 02:33:15;;;;;;;8.80;2.20;;;23.20;63.90;;;;;;5054729;28;20261;-72
2023/01/07 02:36:10;;;;;;;12.50;2.07;;;23.40;65.30;;;;;;5054774;28;20663;-72
2023/01/07 02:38:57;;;;;;;9.27;1.73;;;23.40;62.50;;;;;;5053178;28;20266;-73
2023/01/07 02:41:55;;;;;;;7.77;2.17;;;23.40;63.90;;;;;;5053610;28;20191;-71
2023/01/07 02:44:33;;;;;;;13.70;2.50;;;23.40;63.80;;;;;;5054708;28;20176;-70
2023/01/07 02:47:12;;;;;;;9.20;1.87;;;23.40;63.10;;;;;;5054686;28;20183;-71
2023/01/07 02:49:39;;;;;;;6.97;1.73;;;23.30;63.30;;;;;;5050238;28;20188;-71
2023/01/07 02:52:16;;;;;;;6.23;1.83;;;23.20;63.90;;;;;;5053877;28;20602;-72
2023/01/07 02:54:45;;;;;;;9.20;2.27;;;23.00;62.70;;;;;;5053965;28;20203;-71
2023/01/07 02:57:51;;;;;;;8.43;2.03;;;23.20;63.10;;;;;;5051420;28;20194;-72
2023/01/07 03:00:49;;;;;;;7.47;2.07;;;23.40;61.10;;;;;;5059493;28;20207;-73
2023/01/07 03:03:28;;;;;;;9.47;1.97;;;23.30;60.40;;;;;;5054227;28;20233;-70
2023/01/07 03:06:40;;;;;;;6.37;1.90;;;23.30;61.30;;;;;;5054271;28;20164;-72
2023/01/07 03:09:24;;;;;;;6.50;1.70;;;23.30;60.90;;;;;;5052030;28;20211;-70
2023/01/07 03:12:18;;;;;;;9.40;2.20;;;23.10;61.80;;;;;;5052745;28;20195;-72
2023/01/07 03:14:54;;;;;;;7.47;2.00;;;23.00;62.70;;;;;;5053649;28;20211;-70
2023/01/07 03:17:27;;;;;;;6.97;1.53;;;22.90;61.10;;;;;;5053775;28;20194;-71
2023/01/07 03:20:00;;;;;;;12.13;2.07;;;22.80;62.20;;;;;;5054144;28;20199;-71
2023/01/07 03:22:30;;;;;;;7.83;1.83;;;23.00;62.10;;;;;;5053621;28;20179;-71
2023/01/07 03:24:59;;;;;;;8.57;2.10;;;23.10;62.50;;;;;;5053862;28;20618;-72
2023/01/07 03:27:28;;;;;;;11.10;2.20;;;23.30;62.30;;;;;;5053318;28;20258;-70
2023/01/07 03:29:56;;;;;;;7.37;1.70;;;23.60;61.80;;;;;;5053744;28;20172;-70
2023/01/07 03:32:38;;;;;;;9.27;1.83;;;23.80;60.30;;;;;;5053854;28;20658;-71
2023/01/07 03:35:06;;;;;;;4.83;1.93;;;24.00;59.20;;;;;;5053833;28;20194;-71
2023/01/07 03:37:34;;;;;;;8.23;1.73;;;24.40;57.50;;;;;;5053450;28;20189;-72
2023/01/07 03:40:08;;;;;;;6.13;1.40;;;24.90;55.00;;;;;;5052831;28;20183;-69
2023/01/07 03:42:41;;;;;;;5.83;1.57;;;25.30;53.30;;;;;;5053317;28;20211;-74
2023/01/07 03:45:17;;;;;;;6.77;1.47;;;25.30;52.30;;;;;;5053225;28;20169;-70
2023/01/07 03:47:48;;;;;;;6.17;1.40;;;25.00;53.10;;;;;;5053429;28;20266;-70
2023/01/07 03:50:18;;;;;;;8.97;1.77;;;24.80;53.50;;;;;;5053448;28;20635;-71
2023/01/07 03:52:47;;;;;;;5.50;1.70;;;24.30;54.30;;;;;;5052747;28;20227;-72
2023/01/07 03:55:14;;;;;;;9.57;1.60;;;24.50;55.00;;;;;;5053267;28;20176;-70
2023/01/07 03:57:42;;;;;;;5.17;1.30;;;24.70;51.80;;;;;;5052972;28;20205;-70
2023/01/07 04:00:11;;;;;;;4.83;1.37;;;24.30;54.10;;;;;;5052177;28;20176;-71
2023/01/07 04:02:39;;;;;;;6.60;1.97;;;24.60;54.40;;;;;;5052395;28;20337;-70
2023/01/07 04:05:08;;;;;;;8.77;1.40;;;24.80;54.40;;;;;;5053305;28;20279;-71
2023/01/07 04:07:36;;;;;;;11.07;1.90;;;25.00;52.50;;;;;;5053042;28;20180;-70
2023/01/07 04:10:07;;;;;;;7.93;1.77;;;24.80;52.90;;;;;;5053051;28;20176;-71
2023/01/07 04:12:34;;;;;;;7.90;2.27;;;24.80;53.90;;;;;;5052538;28;20627;-71
2023/01/07 04:15:02;;;;;;;12.37;2.37;;;24.90;54.70;;;;;;5052237;28;20632;-70
2023/01/07 04:17:29;;;;;;;4.17;1.67;;;25.40;53.30;;;;;;5051391;28;20560;-70
2023/01/07 04:19:56;;;;;;;8.50;1.90;;;26.00;52.90;;;;;;5048936;28;20198;-69
2023/01/07 04:22:24;;;;;;;4.03;1.43;;;26.10;51.40;;;;;;5052201;28;20168;-70
2023/01/07 04:24:51;;;;;;;8.50;1.90;;;26.20;52.40;;;;;;5053137;28;20706;-71
2023/01/07 04:27:18;;;;;;;11.37;1.93;;;25.40;55.00;;;;;;5050656;28;20184;-70
2023/01/07 04:29:46;;;;;;;8.47;1.90;;;25.80;53.50;;;;;;5052359;28;20186;-71
2023/01/07 04:32:13;;;;;;;8.90;1.80;;;25.50;54.30;;;;;;5053308;28;20546;-73
2023/01/07 04:34:40;;;;;;;6.87;1.50;;;25.60;54.80;;;;;;5052259;28;20243;-70
2023/01/07 04:37:08;;;;;;;8.10;1.77;;;26.00;53.70;;;;;;5052729;28;20253;-72
2023/01/07 04:39:35;;;;;;;4.60;1.50;;;26.30;51.80;;;;;;5052618;28;20180;-70
2023/01/07 04:42:02;;;;;;;7.47;1.83;;;25.70;53.80;;;;;;5052403;28;20643;-72
2023/01/07 04:44:30;;;;;;;8.33;1.87;;;25.00;54.60;;;;;;5051919;28;20191;-72
2023/01/07 04:46:57;;;;;;;12.00;2.17;;;24.40;57.00;;;;;;5054258;28;20184;-71
2023/01/07 04:49:24;;;;;;;6.87;1.70;;;24.70;58.10;;;;;;5052503;28;20230;-71
2023/01/07 04:51:52;;;;;;;10.00;2.03;;;25.10;59.20;;;;;;5044854;28;20219;-70
2023/01/07 04:54:19;;;;;;;10.57;1.70;;;25.20;58.00;;;;;;5052266;28;20268;-71
2023/01/07 04:56:46;;;;;;;6.47;1.77;;;25.00;59.10;;;;;;5050975;28;20191;-69
2023/01/07 04:59:13;;;;;;;6.67;1.30;;;24.90;59.20;;;;;;5051690;28;20183;-71
2023/01/07 05:01:41;;;;;;;9.87;1.83;;;24.30;59.20;;;;;;5051287;28;20180;-69
2023/01/07 05:04:08;;;;;;;11.20;2.17;;;24.30;61.30;;;;;;5051314;28;20180;-69
2023/01/07 05:06:36;;;;;;;10.47;1.70;;;24.60;60.40;;;;;;5051963;28;20219;-72
2023/01/07 05:09:03;;;;;;;5.90;1.80;;;24.50;60.20;;;;;;5052416;28;20582;-70
2023/01/07 05:11:30;;;;;;;7.07;2.00;;;24.20;60.00;;;;;;5051825;28;20211;-71
2023/01/07 05:14:00;;;;;;;8.47;1.43;;;24.20;58.30;;;;;;5052446;28;20222;-71
2023/01/07 05:16:27;;;;;;;9.47;1.53;;;24.30;56.90;;;;;;5051020;28;20195;-71
2023/01/07 05:18:55;;;;;;;10.37;2.30;;;24.30;57.20;;;;;;5052860;28;20469;-71
2023/01/07 05:21:22;;;;;;;10.07;2.37;;;24.30;58.10;;;;;;5051845;28;20191;-71
2023/01/07 05:23:50;;;;;;;9.87;2.30;;;24.30;57.90;;;;;;5052164;28;20267;-70
2023/01/07 05:26:18;;;;;;;10.63;2.60;;;24.30;59.80;;;;;;5051953;28;20190;-70
2023/01/07 05:28:45;;;;;;;11.90;2.10;;;23.80;64.60;;;;;;5051934;28;20190;-70
2023/01/07 05:31:12;;;;;;;10.40;1.90;;;23.60;66.30;;;;;;5053356;28;20180;-70
2023/01/07 05:33:40;;;;;;;9.67;2.03;;;23.10;67.90;;;;;;5055613;28;20560;-71
2023/01/07 05:36:07;;;;;;;9.60;2.50;;;22.80;69.30;;;;;;5056435;28;20183;-69
2023/01/07 05:38:35;;;;;;;7.00;1.87;;;22.80;69.10;;;;;;5050052;28;20653;-71
2023/01/07 05:41:02;;;;;;;9.00;1.80;;;22.80;69.30;;;;;;5055468;28;20192;-70
2023/01/07 05:43:29;;;;;;;10.10;1.90;;;22.60;69.00;;;;;;5049410;28;20541;-72
2023/01/07 05:45:57;;;;;;;6.13;1.63;;;22.30;69.60;;;;;;5053153;28;20266;-72
2023/01/07 05:48:25;;;;;;;13.13;2.10;;;22.20;70.20;;;;;;5055716;28;20249;-71
2023/01/07 05:50:52;;;;;;;8.73;1.97;;;22.20;69.50;;;;;;5055176;28;20184;-71
2023/01/07 05:53:20;;;;;;;8.97;2.10;;;22.30;69.80;;;;;;5054990;28;20239;-70
2023/01/07 05:55:47;;;;;;;7.50;1.43;;;22.30;69.40;;;;;;5054933;28;20222;-71
2023/01/07 05:58:14;;;;;;;7.57;2.00;;;22.10;69.80;;;;;;5054450;28;20219;-70
2023/01/07 06:00:42;;;;;;;12.57;2.10;;;22.10;70.60;;;;;;5055353;28;20172;-71
2023/01/07 06:03:09;;;;;;;12.87;2.03;;;22.00;71.00;;;;;;5044451;28;20188;-70
2023/01/07 06:05:36;;;;;;;10.37;2.13;;;22.00;71.00;;;;;;5053652;28;20542;-72
2023/01/07 06:08:04;;;;;;;8.80;1.90;;;22.00;71.30;;;;;;5048388;28;20177;-70
2023/01/07 06:10:32;;;;;;;9.13;2.13;;;21.80;72.10;;;;;;5055314;28;20188;-71
2023/01/07 06:13:00;;;;;;;7.13;1.80;;;21.90;70.40;;;;;;5053819;28;20187;-72
2023/01/07 06:15:28;;;;;;;7.80;2.00;;;22.00;69.10;;;;;;5052980;28;20274;-71
2023/01/07 06:17:56;;;;;;;7.83;1.97;;;21.90;69.90;;;;;;5054639;28;20199;-72
2023/01/07 06:20:24;;;;;;;13.80;2.33;;;22.00;70.00;;;;;;5051915;28;20184;-72
2023/01/07 06:22:53;;;;;;;10.53;2.40;;;21.90;70.60;;;;;;5053409;28;20265;-70
2023/01/07 06:25:20;;;;;;;8.40;2.30;;;21.70;72.50;;;;;;5050314;28;20596;-69
2023/01/07 06:27:47;;;;;;;9.07;2.50;;;21.60;73.10;;;;;;5051269;28;20234;-71
2023/01/07 06:30:15;;;;;;;16.53;2.77;;;21.30;74.60;;;;;;5047499;28;20263;-69
2023/01/07 06:32:43;;;;;;;7.93;1.97;;;21.00;75.80;;;;;;5052000;28;20224;-69
2023/01/07 06:35:11;;;;;;;10.73;2.77;;;21.20;75.90;;;;;;5052687;28;20191;-71
2023/01/07 06:37:39;;;;;;;8.37;1.90;;;21.20;75.50;;;;;;5052926;28;20172;-71
2023/01/07 06:40:07;;;;;;;11.97;2.40;;;21.20;74.40;;;;;;5041635;28;20206;-70
2023/01/07 06:42:35;;;;;;;12.30;2.53;;;21.40;74.80;;;;;;5048376;28;20188;-71
2023/01/07 06:45:02;;;;;;;12.60;2.10;;;21.30;75.10;;;;;;5052878;28;20187;-69
2023/01/07 06:47:29;;;;;;;11.37;2.80;;;21.00;76.10;;;;;;5053545;28;20176;-70
2023/01/07 06:49:57;;;;;;;8.67;2.03;;;20.90;76.70;;;;;;5051333;28;20191;-70
2023/01/07 06:52:24;;;;;;;5.87;1.73;;;20.80;77.00;;;;;;5047611;28;20226;-70
2023/01/07 06:54:51;;;;;;;6.10;2.20;;;20.80;77.80;;;;;;5052828;28;20207;-70
2023/01/07 06:57:19;;;;;;;7.10;1.97;;;20.80;76.80;;;;;;5052492;28;20172;-70
2023/01/07 06:59:46;;;;;;;9.97;1.87;;;20.70;76.90;;;;;;5052862;28;20192;-72
2023/01/07 07:02:22;;;;;;;9.70;1.93;;;20.60;76.30;;;;;;5052487;28;20218;-71
2023/01/07 07:04:49;;;;;;;8.90;2.07;;;20.50;76.60;;;;;;5052359;28;20268;-71
2023/01/07 07:07:17;;;;;;;12.20;2.60;;;20.40;77.20;;;;;;5053910;28;20182;-70
2023/01/07 07:09:45;;;;;;;9.10;2.40;;;20.40;77.70;;;;;;5051268;28;20184;-71
2023/01/07 07:12:13;;;;;;;6.57;1.60;;;20.40;77.70;;;;;;5052786;28;20529;-70
2023/01/07 07:14:40;;;;;;;9.13;2.10;;;20.30;78.10;;;;;;5053036;28;20215;-69
2023/01/07 07:17:08;;;;;;;5.57;1.97;;;20.30;78.30;;;;;;5053064;28;20187;-70
2023/01/07 07:19:35;;;;;;;9.60;2.03;;;20.30;78.20;;;;;;5051911;28;20188;-69
2023/01/07 07:22:03;;;;;;;7.07;2.00;;;20.20;78.30;;;;;;5054247;28;20207;-71
2023/01/07 07:24:30;;;;;;;6.60;1.90;;;20.00;78.30;;;;;;5052117;28;20192;-70
2023/01/07 07:26:58;;;;;;;6.57;1.70;;;20.00;78.80;;;;;;5051374;28;20180;-71
2023/01/07 07:29:26;;;;;;;4.10;1.50;;;20.20;78.80;;;;;;5051089;28;20903;-70
2023/01/07 07:31:53;;;;;;;6.60;1.73;;;20.10;78.40;;;;;;5053564;28;20174;-72
2023/01/07 07:34:20;;;;;;;7.03;1.73;;;20.10;78.30;;;;;;5053310;28;20309;-70
2023/01/07 07:36:48;;;;;;;5.37;1.40;;;20.20;78.30;;;;;;5053686;28;20251;-71
2023/01/07 07:39:15;;;;;;;6.53;2.50;;;20.20;78.10;;;;;;5052561;28;20277;-71
2023/01/07 07:41:42;;;;;;;7.83;1.70;;;20.30;77.80;;;;;;5051864;28;20187;-70
2023/01/07 07:44:10;;;;;;;5.30;1.60;;;20.30;77.70;;;;;;5052968;28;20553;-71
2023/01/07 07:46:37;;;;;;;6.30;1.77;;;20.30;77.70;;;;;;5053621;28;20289;-70
2023/01/07 07:49:05;;;;;;;6.13;1.90;;;20.10;78.10;;;;;;5048912;28;20215;-71
2023/01/07 07:51:32;;;;;;;10.73;2.00;;;20.10;78.30;;;;;;5045265;28;20263;-70
2023/01/07 07:54:00;;;;;;;8.77;1.70;;;20.00;78.20;;;;;;5052403;28;20276;-70
2023/01/07 07:56:27;;;;;;;11.57;1.63;;;20.00;77.70;;;;;;5051854;28;20191;-73
2023/01/07 07:58:54;;;;;;;10.07;2.17;;;19.90;77.50;;;;;;5051261;28;20214;-72
2023/01/07 08:01:22;;;;;;;6.97;2.10;;;19.90;77.90;;;;;;5053018;28;20176;-71
2023/01/07 08:03:49;;;;;;;10.23;2.27;;;19.90;78.00;;;;;;5052433;28;20495;-71
2023/01/07 08:06:16;;;;;;;4.43;1.57;;;19.90;78.00;;;;;;5052118;28;20183;-70
2023/01/07 08:08:44;;;;;;;11.77;2.10;;;20.00;77.60;;;;;;5054839;28;20241;-71
2023/01/07 08:11:11;;;;;;;9.53;1.77;;;19.90;77.60;;;;;;5052030;28;20642;-71
2023/01/07 08:13:38;;;;;;;6.50;2.17;;;19.90;77.20;;;;;;5051431;28;20739;-71
2023/01/07 08:16:06;;;;;;;9.70;2.07;;;19.90;77.40;;;;;;5051786;28;20186;-70
2023/01/07 08:18:33;;;;;;;7.50;2.00;;;19.90;78.50;;;;;;5052596;28;20187;-70
2023/01/07 08:21:00;;;;;;;9.70;2.53;;;19.90;79.00;;;;;;5051876;28;20182;-72
2023/01/07 08:23:30;;;;;;;8.23;2.10;;;19.80;79.70;;;;;;5051922;28;20558;-71
2023/01/07 08:26:01;;;;;;;10.50;2.20;;;19.70;81.50;;;;;;5039320;28;20256;-71
2023/01/07 08:28:30;;;;;;;9.00;2.20;;;19.60;82.30;;;;;;5050738;28;20188;-72
2023/01/07 08:31:01;;;;;;;13.07;3.00;;;19.50;82.50;;;;;;5050830;28;20172;-72
2023/01/07 08:33:28;;;;;;;12.33;2.80;;;19.50;83.00;;;;;;5037569;28;20223;-70
2023/01/07 08:35:55;;;;;;;10.33;2.50;;;19.50;82.70;;;;;;5051011;28;20187;-70
2023/01/07 08:38:24;;;;;;;12.50;2.50;;;19.30;81.80;;;;;;5050348;28;20293;-70
2023/01/07 08:40:51;;;;;;;14.17;2.20;;;19.10;82.40;;;;;;5050928;28;20180;-70
2023/01/07 08:43:18;;;;;;;6.90;1.90;;;19.00;83.90;;;;;;5051281;28;20521;-71
2023/01/07 08:45:50;;;;;;;15.87;3.70;;;18.80;85.50;;;;;;5045698;28;20187;-71
2023/01/07 08:48:17;;;;;;;9.73;2.40;;;18.90;85.90;;;;;;5047843;28;20507;-71
2023/01/07 08:50:48;;;;;;;16.10;3.40;;;18.80;85.40;;;;;;5046687;28;20186;-72
2023/01/07 08:53:15;;;;;;;9.20;2.60;;;18.80;85.60;;;;;;5041251;28;20281;-70
2023/01/07 08:55:42;;;;;;;11.30;2.63;;;18.80;85.40;;;;;;5048434;28;20178;-70
2023/01/07 08:58:10;;;;;;;10.30;2.70;;;18.80;84.90;;;;;;5049841;28;20225;-70
2023/01/07 09:00:37;;;;;;;8.17;2.67;;;18.80;85.10;;;;;;5049873;28;20182;-71
2023/01/07 09:03:05;;;;;;;9.83;2.70;;;18.80;84.20;;;;;;5050288;28;20176;-70
2023/01/07 09:05:32;;;;;;;10.93;2.47;;;18.90;84.20;;;;;;5052545;28;20183;-70
2023/01/07 09:08:01;;;;;;;12.23;2.60;;;18.90;83.90;;;;;;5053914;28;20263;-71
2023/01/07 09:10:29;;;;;;;11.33;2.60;;;18.90;83.10;;;;;;5055259;28;20184;-71
2023/01/07 09:12:56;;;;;;;11.50;2.57;;;19.00;82.90;;;;;;5054873;28;20183;-69
2023/01/07 09:15:24;;;;;;;16.30;3.03;;;19.00;82.90;;;;;;5055948;28;20181;-69
2023/01/07 09:17:51;;;;;;;11.83;3.23;;;18.90;82.90;;;;;;5059748;28;20169;-72
2023/01/07 09:20:19;;;;;;;12.27;2.80;;;18.90;83.10;;;;;;5055681;28;20176;-70
2023/01/07 09:22:47;;;;;;;13.33;3.40;;;19.00;83.00;;;;;;5056095;28;20176;-70
2023/01/07 09:25:14;;;;;;;8.17;2.07;;;18.90;82.90;;;;;;5055500;28;20187;-70
2023/01/07 09:27:41;;;;;;;13.03;2.47;;;18.80;82.80;;;;;;5052592;28;20222;-71
2023/01/07 09:30:09;;;;;;;8.97;2.73;;;18.80;83.20;;;;;;5045088;28;20229;-72
2023/01/07 09:32:37;;;;;;;7.20;2.53;;;18.80;83.20;;;;;;5055865;28;20653;-72
2023/01/07 09:35:05;;;;;;;12.33;2.70;;;18.80;83.40;;;;;;5054704;28;20272;-70
2023/01/07 09:37:33;;;;;;;11.73;2.50;;;18.80;83.80;;;;;;5052679;28;20187;-73
2023/01/07 09:40:00;;;;;;;9.13;2.70;;;18.80;84.10;;;;;;5055871;28;20654;-71
2023/01/07 09:42:45;;;;;;;7.83;2.60;;;18.80;83.80;;;;;;5055063;28;20182;-71
2023/01/07 09:45:30;;;;;;;7.73;2.40;;;18.80;83.30;;;;;;5052832;28;20237;-72
2023/01/07 09:48:05;;;;;;;8.70;2.47;;;18.70;82.90;;;;;;5051909;28;20187;-71
2023/01/07 09:50:57;;;;;;;9.63;2.47;;;18.70;82.70;;;;;;5053891;28;20188;-71
2023/01/07 09:53:27;;;;;;;7.17;2.40;;;18.80;83.20;;;;;;5054531;28;20232;-71
2023/01/07 09:55:55;;;;;;;11.13;2.93;;;18.80;84.20;;;;;;5053812;28;20681;-69
2023/01/07 09:58:23;;;;;;;13.00;3.10;;;18.80;84.60;;;;;;5054604;28;20714;-69
2023/01/07 10:01:06;;;;;;;11.33;2.67;;;18.80;84.80;;;;;;5044544;28;20172;-70
2023/01/07 10:04:05;;;;;;;7.20;3.00;;;18.80;85.30;;;;;;5054847;28;20202;-71
2023/01/07 10:06:32;;;;;;;11.80;3.07;;;18.80;85.90;;;;;;5054334;28;20670;-72
2023/01/07 10:09:35;;;;;;;12.83;3.37;;;18.80;87.40;;;;;;5051680;28;20650;-72
2023/01/07 10:12:26;;;;;;;13.40;3.57;;;18.70;88.20;;;;;;5054720;28;20183;-74
2023/01/07 10:15:31;;;;;;;13.20;3.40;;;18.60;89.30;;;;;;5053775;28;20218;-72
2023/01/07 10:18:14;;;;;;;14.90;3.87;;;18.40;89.40;;;;;;5024805;28;20197;-72
2023/01/07 10:20:47;;;;;;;11.23;3.47;;;18.40;89.80;;;;;;5052514;28;20678;-73
2023/01/07 10:23:30;;;;;;;13.30;3.97;;;18.40;89.70;;;;;;5054822;28;20167;-73
2023/01/07 10:26:00;;;;;;;12.97;4.60;;;18.50;89.90;;;;;;5055110;28;20206;-74
2023/01/07 10:28:43;;;;;;;13.27;4.33;;;18.50;90.20;;;;;;5053459;28;20219;-73
2023/01/07 10:31:28;;;;;;;13.37;4.83;;;18.40;90.20;;;;;;5054550;28;20183;-74
2023/01/07 10:33:56;;;;;;;12.80;4.10;;;18.40;90.20;;;;;;5054210;28;20267;-72
2023/01/07 10:36:39;;;;;;;16.03;4.40;;;18.40;90.20;;;;;;5053748;28;20666;-73
2023/01/07 10:39:36;;;;;;;18.00;4.97;;;18.40;90.20;;;;;;5054394;28;20187;-76
2023/01/07 10:42:31;;;;;;;14.00;5.17;;;18.30;90.10;;;;;;5054694;28;20183;-74
2023/01/07 10:45:16;;;;;;;13.37;4.70;;;18.30;90.20;;;;;;5050549;28;20179;-73
2023/01/07 10:47:52;;;;;;;13.63;5.20;;;18.30;90.10;;;;;;5050542;28;20183;-73
2023/01/07 10:50:31;;;;;;;13.60;4.93;;;18.30;90.10;;;;;;5046724;28;20207;-72
2023/01/07 10:53:01;;;;;;;11.57;5.10;;;18.30;90.10;;;;;;5051250;28;20685;-73
2023/01/07 10:55:48;;;;;;;15.80;5.70;;;18.30;90.00;;;;;;5049901;28;20188;-73
2023/01/07 10:58:16;;;;;;;16.40;5.23;;;18.30;90.00;;;;;;5050559;28;20188;-75
2023/01/07 11:00:46;;;;;;;9.00;4.47;;;18.30;90.00;;;;;;5050438;28;20176;-75
2023/01/07 11:03:21;;;;;;;13.03;4.70;;;18.30;90.10;;;;;;5050744;28;20257;-77
2023/01/07 11:05:56;;;;;;;14.20;5.00;;;18.30;90.10;;;;;;5053221;28;20171;-73
2023/01/07 11:08:36;;;;;;;11.30;4.40;;;18.30;90.00;;;;;;5053892;28;20247;-74
2023/01/07 11:11:05;;;;;;;11.50;4.90;;;18.30;89.90;;;;;;5053042;28;20191;-72
2023/01/07 11:13:35;;;;;;;12.20;4.87;;;18.20;89.80;;;;;;5049029;28;20200;-73
2023/01/07 11:16:18;;;;;;;18.37;5.40;;;18.20;89.80;;;;;;5052747;28;20202;-74
2023/01/07 11:18:59;;;;;;;10.87;4.63;;;18.20;89.80;;;;;;5043870;28;20224;-73
2023/01/07 11:21:40;;;;;;;26.27;20.80;;;18.30;90.00;;;;;;5052330;28;20183;-72
2023/01/07 11:24:35;;;;;;;18.80;11.63;;;18.30;90.10;;;;;;5053964;28;20218;-72
2023/01/07 11:27:12;;;;;;;20.40;6.10;;;18.30;90.10;;;;;;5041790;28;20198;-75
2023/01/07 11:29:53;;;;;;;13.73;5.20;;;18.30;90.00;;;;;;5052611;28;20176;-73
2023/01/07 11:32:32;;;;;;;12.60;5.47;;;18.30;90.00;;;;;;5054066;28;20256;-71
2023/01/07 11:35:28;;;;;;;13.73;4.87;;;18.30;89.70;;;;;;5040110;28;20214;-74
2023/01/07 11:37:57;;;;;;;12.33;5.17;;;18.30;89.70;;;;;;5037445;28;20184;-76
2023/01/07 11:40:31;;;;;;;14.80;5.30;;;18.30;89.70;;;;;;5053350;28;20323;-72
2023/01/07 11:42:59;;;;;;;12.17;5.20;;;18.40;89.80;;;;;;5052293;28;20643;-74
2023/01/07 11:45:28;;;;;;;17.83;6.40;;;18.30;89.70;;;;;;5053151;28;20642;-74
2023/01/07 11:48:34;;;;;;;20.47;6.10;;;18.30;89.30;;;;;;5053506;28;20245;-72
2023/01/07 11:51:12;;;;;;;13.57;5.10;;;18.30;89.30;;;;;;5089933;27;21132;-74
2023/01/07 11:53:52;;;;;;;17.80;4.70;;;18.30;89.10;;;;;;5089993;28;20187;-74
2023/01/07 11:56:27;;;;;;;15.37;4.60;;;18.30;89.00;;;;;;5090308;28;20173;-70
2023/01/07 11:59:22;;;;;;;14.70;4.93;;;18.30;88.80;;;;;;5084848;28;20185;-73
2023/01/07 12:01:55;;;;;;;16.00;4.47;;;18.30;88.60;;;;;;5089893;28;20677;-74
2023/01/07 12:04:24;;;;;;;14.27;4.30;;;18.30;88.30;;;;;;5088143;28;20178;-75
2023/01/07 12:06:55;;;;;;;18.07;4.97;;;18.30;88.20;;;;;;5083046;28;20236;-72
2023/01/07 12:09:31;;;;;;;12.63;4.53;;;18.30;88.20;;;;;;5088842;28;20281;-74
2023/01/07 12:12:30;;;;;;;17.50;4.53;;;18.30;88.10;;;;;;5089608;28;20210;-73
2023/01/07 12:14:55;;;;;;;15.67;4.23;;;18.30;87.90;;;;;;5073729;28;20173;-74
2023/01/07 12:17:24;;;;;;;16.40;4.27;;;18.30;87.90;;;;;;5078408;28;20274;-74
2023/01/07 12:20:28;;;;;;;14.10;4.73;;;18.40;87.90;;;;;;5083340;28;20171;-74
2023/01/07 12:23:07;;;;;;;17.57;4.57;;;18.40;87.80;;;;;;5076748;28;20223;-75
2023/01/07 12:25:41;;;;;;;16.53;4.83;;;18.40;87.50;;;;;;5084575;28;20270;-75
2023/01/07 12:28:31;;;;;;;16.10;4.17;;;18.40;87.50;;;;;;5088342;28;20226;-75
2023/01/07 12:31:21;;;;;;;19.37;4.67;;;18.50;87.50;;;;;;5081585;28;20215;-74
2023/01/07 12:34:03;;;;;;;17.50;3.83;;;18.40;86.90;;;;;;5076932;28;20178;-74
2023/01/07 12:36:47;;;;;;;15.03;3.80;;;18.50;86.70;;;;;;5070470;28;20191;-74
2023/01/07 12:39:25;;;;;;;18.27;3.57;;;18.40;85.90;;;;;;5070261;28;20171;-73
2023/01/07 12:42:01;;;;;;;15.87;3.23;;;18.50;85.20;;;;;;5071593;28;20215;-75
2023/01/07 12:44:29;;;;;;;12.57;3.10;;;18.50;84.50;;;;;;5086831;28;20170;-76
2023/01/07 12:47:10;;;;;;;13.47;3.67;;;18.50;84.20;;;;;;5078741;28;20180;-76
2023/01/07 12:50:01;;;;;;;15.07;3.40;;;18.60;84.10;;;;;;5071220;28;20329;-75
2023/01/07 12:52:41;;;;;;;18.00;3.27;;;18.70;83.80;;;;;;5083842;28;20178;-75
2023/01/07 12:55:29;;;;;;;13.20;3.20;;;18.60;83.40;;;;;;5081164;28;20606;-76
2023/01/07 12:58:10;;;;;;;12.57;3.60;;;18.60;83.40;;;;;;5064077;28;20172;-73
2023/01/07 13:00:45;;;;;;;10.90;3.00;;;18.70;83.40;;;;;;5067755;28;20179;-73
2023/01/07 13:03:28;;;;;;;15.27;3.37;;;18.60;83.20;;;;;;5059517;28;20210;-73
2023/01/07 13:06:09;;;;;;;16.90;3.50;;;18.70;83.20;;;;;;5053760;28;20256;-76
2023/01/07 13:08:51;;;;;;;17.17;2.87;;;18.70;83.30;;;;;;5060819;28;20201;-75
2023/01/07 13:14:24;;;;;;;14.30;3.13;;;18.70;82.80;;;;;;5059604;28;20540;-74
2023/01/07 13:16:52;;;;;;;10.97;2.90;;;18.70;82.70;;;;;;5043786;28;20286;-76